createdAt,value
2018-09-28T00:02:29.368Z,146312.98
2018-09-28T00:04:59.743Z,146309.28
2018-09-28T00:07:29.984Z,146283.31
2018-09-28T00:10:00.110Z,146298.16
2018-09-28T00:12:30.068Z,146279.61
2018-09-28T00:15:00.921Z,146275.91
2018-09-28T00:17:31.268Z,146278.37
2018-09-28T00:20:01.493Z,146256.09
2018-09-28T00:22:31.612Z,146272.16
2018-09-28T00:25:02.047Z,146278.37
2018-09-28T00:27:32.245Z,146284.56
2018-09-28T00:30:02.576Z,146268.44
2018-09-28T00:32:32.722Z,146256.09
2018-09-28T00:35:03.277Z,146253.63
2018-09-28T00:37:33.804Z,146258.56
2018-09-28T00:40:04.652Z,146254.86
2018-09-28T00:42:35.182Z,146231.37
2018-09-28T00:45:06.717Z,146243.73
2018-09-28T00:47:36.876Z,146236.31
2018-09-28T00:50:07.418Z,146238.80
2018-09-28T00:52:37.648Z,146238.80
2018-09-28T00:55:07.662Z,146243.73
2018-09-28T00:57:38.761Z,146233.84
2018-09-28T01:00:09.085Z,146241.27
2018-09-28T01:02:39.517Z,146210.28
2018-09-28T01:05:10.376Z,146186.81
2018-09-28T01:07:40.573Z,146200.41
2018-09-28T01:10:10.940Z,146215.22
2018-09-28T01:12:40.862Z,146212.75
2018-09-28T01:15:11.679Z,146206.58
2018-09-28T01:17:41.630Z,146210.28
2018-09-28T01:20:12.939Z,146202.88
2018-09-28T01:22:43.879Z,146196.69
2018-09-28T01:25:14.175Z,146206.58
2018-09-28T01:27:44.671Z,146217.69
2018-09-28T01:30:15.267Z,146196.69
2018-09-28T01:32:45.429Z,146205.34
2018-09-28T01:35:18.389Z,146189.28
2018-09-28T01:37:48.654Z,146195.47
2018-09-28T01:40:18.939Z,146189.28
2018-09-28T01:42:49.263Z,146175.64
2018-09-28T01:45:19.628Z,146155.87
2018-09-28T01:47:50.158Z,146158.36
2018-09-28T01:50:20.698Z,146157.13
2018-09-28T01:52:50.738Z,146137.36
2018-09-28T01:55:20.838Z,146121.25
2018-09-28T01:57:52.134Z,146129.89
2018-09-28T02:00:22.373Z,146144.77
2018-09-28T02:02:52.670Z,146149.70
2018-09-28T02:05:22.837Z,146146.00
2018-09-28T02:07:52.734Z,146162.06
2018-09-28T02:10:22.663Z,146143.53
2018-09-28T02:12:53.381Z,146144.77
2018-09-28T02:15:23.834Z,146144.77
2018-09-28T02:17:54.285Z,146152.17
2018-09-28T02:20:24.491Z,146162.06
2018-09-28T02:22:55.534Z,146157.13
2018-09-28T02:25:25.698Z,146155.87
2018-09-28T02:27:55.937Z,146181.83
2018-09-28T02:30:26.252Z,146169.47
2018-09-28T02:32:57.500Z,146194.22
2018-09-28T02:35:27.575Z,146194.22
2018-09-28T02:37:57.695Z,146207.81
2018-09-28T02:40:27.667Z,146194.22
2018-09-28T02:42:57.437Z,146209.05
2018-09-28T02:45:28.328Z,146226.39
2018-09-28T02:47:58.665Z,146252.38
2018-09-28T02:50:28.990Z,146249.91
2018-09-28T02:52:59.349Z,146253.63
2018-09-28T02:55:31.044Z,146248.67
2018-09-28T02:58:04.202Z,146253.63
2018-09-28T03:00:34.865Z,146253.63
2018-09-28T03:04:35.055Z,146232.61
2018-09-28T03:07:05.101Z,146248.67
2018-09-28T03:09:35.223Z,146253.63
2018-09-28T03:12:06.178Z,146277.14
2018-09-28T03:14:36.259Z,146303.09
2018-09-28T03:17:07.571Z,146325.37
2018-09-28T03:19:37.638Z,146337.75
2018-09-28T03:22:08.053Z,146334.03
2018-09-28T03:24:38.185Z,146348.88
2018-09-28T03:27:08.743Z,146363.70
2018-09-28T03:29:39.044Z,146357.52
2018-09-28T03:32:09.493Z,146335.28
2018-09-28T03:34:39.503Z,146305.56
2018-09-28T03:37:09.664Z,146285.80
2018-09-28T03:39:40.612Z,146288.27
2018-09-28T03:42:12.128Z,146238.80
2018-09-28T03:44:42.314Z,146251.16
2018-09-28T03:47:13.129Z,146251.16
2018-09-28T03:49:43.048Z,146233.84
2018-09-28T03:52:13.014Z,146246.20
2018-09-28T03:54:43.833Z,146249.91
2018-09-28T03:57:14.244Z,146217.69
2018-09-28T03:59:45.361Z,146196.69
2018-09-28T04:02:16.982Z,146202.88
2018-09-28T04:04:47.446Z,146222.64
2018-09-28T04:07:18.541Z,146215.22
2018-09-28T04:09:49.651Z,146233.84
2018-09-28T04:12:23.726Z,146225.11
2018-09-28T04:14:54.141Z,146231.37
2018-09-28T04:17:25.136Z,146248.67
2018-09-28T04:19:55.485Z,146242.50
2018-09-28T04:22:25.886Z,146275.91
2018-09-28T04:24:56.305Z,146267.22
2018-09-28T04:27:26.815Z,146285.80
2018-09-28T04:29:56.869Z,146311.75
2018-09-28T04:32:28.046Z,146350.09
2018-09-28T04:34:58.124Z,146389.70
2018-09-28T04:37:29.290Z,146421.89
2018-09-28T04:39:59.419Z,146446.62
2018-09-28T04:42:31.466Z,146497.36
2018-09-28T04:45:01.763Z,146543.16
2018-09-28T04:47:32.934Z,146570.42
2018-09-28T04:50:03.213Z,146587.73
2018-09-28T04:52:34.558Z,146628.66
2018-09-28T04:55:04.739Z,146707.94
2018-09-28T04:57:34.990Z,146883.84
2018-09-28T05:00:06.063Z,146997.95
2018-09-28T05:02:37.337Z,147061.17
2018-09-28T05:05:09.820Z,147095.91
2018-09-28T05:07:40.096Z,147066.12
2018-09-28T05:10:10.043Z,147071.08
2018-09-28T05:12:39.998Z,147063.64
2018-09-28T05:15:10.380Z,147067.38
2018-09-28T05:17:40.802Z,147069.84
2018-09-28T05:20:10.710Z,147077.33
2018-09-28T05:22:41.378Z,147084.75
2018-09-28T05:25:12.664Z,147130.64
2018-09-28T05:27:42.922Z,147192.66
2018-09-28T05:30:13.822Z,147275.84
2018-09-28T05:32:44.259Z,147351.52
2018-09-28T05:35:14.346Z,147435.94
2018-09-28T05:37:45.118Z,147542.75
2018-09-28T05:40:15.237Z,147665.75
2018-09-28T05:42:45.291Z,147885.78
2018-09-28T05:45:18.021Z,147903.17
2018-09-28T05:47:48.288Z,148099.70
2018-09-28T05:50:18.521Z,148322.52
2018-09-28T05:52:49.521Z,148333.70
2018-09-28T05:55:19.966Z,148437.03
2018-09-28T05:57:52.255Z,148943.13
2018-09-28T06:00:27.152Z,149288.75
2018-09-28T06:03:02.160Z,149707.31
2018-09-28T06:05:34.326Z,149571.06
2018-09-28T06:08:04.455Z,149822.31
2018-09-28T06:10:34.847Z,150082.48
2018-09-28T06:13:05.004Z,150096.23
2018-09-28T06:15:35.384Z,150191.38
2018-09-28T06:18:05.573Z,150397.95
2018-09-28T06:20:35.854Z,150479.34
2018-09-28T06:23:06.397Z,150640.94
2018-09-28T06:25:36.410Z,150661.02
2018-09-28T06:28:10.520Z,150362.89
2018-09-28T06:30:40.680Z,150583.34
2018-09-28T06:33:11.423Z,150688.59
2018-09-28T06:35:41.746Z,150355.39
2018-09-28T06:38:12.011Z,149997.38
2018-09-28T06:40:42.023Z,149556.09
2018-09-28T06:43:13.127Z,149300.03
2018-09-28T06:45:43.194Z,148864.50
2018-09-28T06:48:13.804Z,148797.22
2018-09-28T06:50:44.113Z,148532.98
2018-09-28T06:53:14.627Z,148235.34
2018-09-28T06:55:44.786Z,148140.77
2018-09-28T06:58:17.391Z,148064.91
2018-09-28T07:00:47.678Z,147998.92
2018-09-28T07:03:18.604Z,147971.58
2018-09-28T07:05:48.860Z,147970.34
2018-09-28T07:08:20.828Z,147880.81
2018-09-28T07:10:52.657Z,147880.81
2018-09-28T07:13:26.329Z,147910.62
2018-09-28T07:15:56.692Z,147933.03
2018-09-28T07:18:26.878Z,147946.69
2018-09-28T07:20:56.992Z,147942.97
2018-09-28T07:23:27.136Z,147956.63
2018-09-28T07:25:58.352Z,147967.81
2018-09-28T07:28:29.351Z,147970.34
2018-09-28T07:30:59.664Z,147972.83
2018-09-28T07:33:30.055Z,147985.25
2018-09-28T07:36:00.405Z,147987.73
2018-09-28T07:38:31.434Z,147910.62
2018-09-28T07:41:01.516Z,147878.33
2018-09-28T07:43:33.393Z,147906.91
2018-09-28T07:46:03.917Z,147904.42
2018-09-28T07:48:39.283Z,147933.03
2018-09-28T07:51:10.190Z,147950.42
2018-09-28T07:53:40.576Z,147990.22
2018-09-28T07:56:10.699Z,148022.56
2018-09-28T07:58:40.913Z,148039.97
2018-09-28T08:01:11.222Z,148057.41
2018-09-28T08:03:41.562Z,148047.42
2018-09-28T08:06:11.823Z,148007.61
2018-09-28T08:08:43.329Z,148022.56
2018-09-28T08:11:13.361Z,148058.66
2018-09-28T08:13:43.620Z,148043.69
2018-09-28T08:16:13.711Z,148026.30
2018-09-28T08:18:43.909Z,148026.30
2018-09-28T08:21:14.910Z,148033.75
2018-09-28T08:23:45.286Z,147995.19
2018-09-28T08:26:15.540Z,147988.97
2018-09-28T08:28:45.650Z,147985.25
2018-09-28T08:31:16.355Z,147985.25
2018-09-28T08:33:46.524Z,148026.30
2018-09-28T08:36:16.672Z,148041.20
2018-09-28T08:38:46.866Z,148064.91
2018-09-28T08:41:17.051Z,148039.97
2018-09-28T08:43:48.498Z,148072.37
2018-09-28T08:46:19.081Z,148097.22
2018-09-28T08:48:49.728Z,148109.66
2018-09-28T08:51:20.178Z,148097.22
2018-09-28T08:53:53.889Z,148128.34
2018-09-28T08:56:25.322Z,148137.03
2018-09-28T08:58:55.435Z,148149.47
2018-09-28T09:01:25.717Z,148137.03
2018-09-28T09:03:55.812Z,148133.31
2018-09-28T09:06:25.976Z,148128.34
2018-09-28T09:08:57.411Z,148069.88
2018-09-28T09:11:27.749Z,148117.16
2018-09-28T09:13:58.030Z,148112.19
2018-09-28T09:16:28.309Z,148117.16
2018-09-28T09:18:58.582Z,148128.34
2018-09-28T09:21:28.691Z,148137.03
2018-09-28T09:23:58.875Z,148140.77
2018-09-28T09:26:30.405Z,148164.44
2018-09-28T09:29:00.548Z,148199.23
2018-09-28T09:31:30.931Z,148163.19
2018-09-28T09:34:01.170Z,148196.75
2018-09-28T09:36:31.772Z,148201.72
2018-09-28T09:39:02.067Z,148230.36
2018-09-28T09:41:32.347Z,148181.83
2018-09-28T09:44:03.617Z,148201.72
2018-09-28T09:46:33.929Z,148211.72
2018-09-28T09:49:04.366Z,148181.83
2018-09-28T09:51:34.409Z,148130.81
2018-09-28T09:54:04.641Z,148156.92
2018-09-28T09:56:34.822Z,148129.58
2018-09-28T09:59:04.997Z,148174.38
2018-09-28T10:01:39.853Z,148189.30
2018-09-28T10:04:10.950Z,148201.72
2018-09-28T10:06:40.930Z,148206.75
2018-09-28T10:09:13.494Z,148194.27
2018-09-28T10:11:43.722Z,148189.30
2018-09-28T10:14:14.041Z,148137.03
2018-09-28T10:16:44.193Z,148124.61
2018-09-28T10:19:14.238Z,148160.70
2018-09-28T10:21:44.531Z,148181.83
2018-09-28T10:24:15.151Z,148168.16
2018-09-28T10:26:45.071Z,148200.48
2018-09-28T10:29:15.271Z,148219.17
2018-09-28T10:31:46.027Z,148212.95
2018-09-28T10:34:16.840Z,148206.75
2018-09-28T10:36:46.903Z,148212.95
2018-09-28T10:39:17.933Z,148236.58
2018-09-28T10:41:48.134Z,148211.72
2018-09-28T10:44:18.362Z,148199.23
2018-09-28T10:46:48.592Z,148207.98
2018-09-28T10:49:18.581Z,148201.72
2018-09-28T10:51:48.944Z,148214.20
2018-09-28T10:54:19.568Z,148231.61
2018-09-28T10:56:49.834Z,148201.72
2018-09-28T10:59:20.129Z,148214.20
2018-09-28T11:01:57.046Z,148232.84
2018-09-28T11:04:27.392Z,148202.97
2018-09-28T11:06:57.943Z,148184.31
2018-09-28T11:09:28.229Z,148201.72
2018-09-28T11:11:58.388Z,148186.80
2018-09-28T11:14:28.310Z,148196.75
2018-09-28T11:16:58.501Z,148176.86
2018-09-28T11:19:28.644Z,148180.59
2018-09-28T11:21:58.903Z,148179.34
2018-09-28T11:24:29.302Z,148199.23
2018-09-28T11:26:59.639Z,148201.72
2018-09-28T11:29:29.866Z,148207.98
2018-09-28T11:31:59.833Z,148189.30
2018-09-28T11:34:30.320Z,148193.02
2018-09-28T11:37:00.604Z,148176.86
2018-09-28T11:39:31.064Z,148159.45
2018-09-28T11:42:01.203Z,148159.45
2018-09-28T11:44:32.826Z,148150.70
2018-09-28T11:47:03.114Z,148143.25
2018-09-28T11:49:33.351Z,148137.03
2018-09-28T11:52:03.520Z,148130.81
2018-09-28T11:54:34.024Z,148130.81
2018-09-28T11:57:04.166Z,148145.73
2018-09-28T11:59:34.585Z,148146.98
2018-09-28T12:02:08.700Z,148153.19
2018-09-28T12:04:38.701Z,148170.66
2018-09-28T12:07:09.172Z,148139.52
2018-09-28T12:09:39.143Z,148139.52
2018-09-28T12:12:10.054Z,148128.34
2018-09-28T12:14:40.666Z,148117.16
2018-09-28T12:17:10.824Z,148135.80
2018-09-28T12:19:41.078Z,148142.00
2018-09-28T12:22:11.291Z,148143.25
2018-09-28T12:24:41.360Z,148132.06
2018-09-28T12:27:11.549Z,148149.47
2018-09-28T12:29:42.781Z,148171.89
2018-09-28T12:32:13.255Z,148132.06
2018-09-28T12:34:43.631Z,148095.97
2018-09-28T12:37:13.743Z,148094.73
2018-09-28T12:39:44.091Z,148142.00
2018-09-28T12:42:15.482Z,148149.47
2018-09-28T12:44:46.474Z,148132.06
2018-09-28T12:47:16.807Z,148129.58
2018-09-28T12:49:47.291Z,148132.06
2018-09-28T12:52:17.492Z,148129.58
2018-09-28T12:54:48.028Z,148127.09
2018-09-28T12:57:18.336Z,148117.16
2018-09-28T12:59:48.436Z,148092.25
2018-09-28T13:02:19.393Z,148069.88
2018-09-28T13:04:50.160Z,147996.44
2018-09-28T13:07:22.139Z,147980.28
2018-09-28T13:09:52.260Z,147975.31
2018-09-28T13:12:22.697Z,148015.06
2018-09-28T13:14:54.333Z,148033.75
2018-09-28T13:17:24.402Z,148000.16
2018-09-28T13:19:54.633Z,147990.22
2018-09-28T13:22:24.867Z,148000.16
2018-09-28T13:24:55.832Z,148013.83
2018-09-28T13:27:25.884Z,148036.23
2018-09-28T13:29:56.335Z,148059.89
2018-09-28T13:32:26.767Z,148048.70
2018-09-28T13:34:58.044Z,148054.92
2018-09-28T13:37:28.224Z,148000.16
2018-09-28T13:39:58.401Z,147975.31
2018-09-28T13:42:29.470Z,147981.53
2018-09-28T13:45:01.577Z,147992.70
2018-09-28T13:47:32.962Z,148018.84
2018-09-28T13:50:03.060Z,148023.81
2018-09-28T13:52:33.304Z,148041.20
2018-09-28T13:55:04.705Z,148046.17
2018-09-28T13:57:34.858Z,148041.20
2018-09-28T14:00:06.300Z,148037.47
2018-09-28T14:02:38.066Z,148026.30
2018-09-28T14:05:08.372Z,148020.09
2018-09-28T14:07:39.390Z,148027.53
2018-09-28T14:10:10.091Z,148018.84
2018-09-28T14:12:40.400Z,148008.86
2018-09-28T14:15:11.527Z,148012.58
2018-09-28T14:17:41.771Z,147992.70
2018-09-28T14:20:12.110Z,147990.22
2018-09-28T14:22:42.388Z,147964.09
2018-09-28T14:25:12.521Z,147987.73
2018-09-28T14:27:44.217Z,148002.64
2018-09-28T14:30:14.630Z,147990.22
2018-09-28T14:32:45.056Z,147970.34
2018-09-28T14:35:15.462Z,147940.48
2018-09-28T14:37:45.800Z,147949.19
2018-09-28T14:40:15.787Z,147947.94
2018-09-28T14:42:46.101Z,147928.06
2018-09-28T14:45:17.313Z,147918.08
2018-09-28T14:47:47.539Z,147903.17
2018-09-28T14:50:17.982Z,147893.23
2018-09-28T14:52:48.221Z,147882.06
2018-09-28T14:55:20.725Z,147854.69
2018-09-28T14:57:50.918Z,147848.48
2018-09-28T15:00:22.201Z,147798.72
2018-09-28T15:02:52.242Z,147729.09
2018-09-28T15:05:22.539Z,147725.37
2018-09-28T15:07:53.441Z,147720.41
2018-09-28T15:10:26.855Z,147719.17
2018-09-28T15:12:57.302Z,147671.95
2018-09-28T15:15:28.423Z,147676.92
2018-09-28T15:17:59.503Z,147673.19
2018-09-28T15:20:29.713Z,147668.23
2018-09-28T15:22:59.738Z,147627.22
2018-09-28T15:25:30.845Z,147611.09
2018-09-28T15:28:01.223Z,147611.09
2018-09-28T15:30:31.388Z,147588.72
2018-09-28T15:33:01.286Z,147583.75
2018-09-28T15:35:32.319Z,147555.22
2018-09-28T15:38:02.547Z,147561.41
2018-09-28T15:40:34.352Z,147553.97
2018-09-28T15:43:04.588Z,147542.75
2018-09-28T15:45:38.876Z,147514.17
2018-09-28T15:48:09.460Z,147499.28
2018-09-28T15:50:39.766Z,147494.28
2018-09-28T15:53:10.547Z,147478.16
2018-09-28T15:55:40.877Z,147459.55
2018-09-28T15:58:11.231Z,147458.31
2018-09-28T16:00:41.580Z,147448.34
2018-09-28T16:03:12.214Z,147430.97
2018-09-28T16:05:43.257Z,147386.28
2018-09-28T16:08:13.736Z,147393.72
2018-09-28T16:10:46.063Z,147381.33
2018-09-28T16:13:16.265Z,147382.56
2018-09-28T16:15:46.428Z,147366.44
2018-09-28T16:18:17.549Z,147354.00
2018-09-28T16:20:47.806Z,147360.25
2018-09-28T16:23:19.127Z,147351.52
2018-09-28T16:25:49.633Z,147349.03
2018-09-28T16:28:20.550Z,147346.56
2018-09-28T16:30:51.048Z,147339.11
2018-09-28T16:33:24.113Z,147315.56
2018-09-28T16:35:54.384Z,147314.31
2018-09-28T16:38:24.719Z,147311.84
2018-09-28T16:40:55.490Z,147308.08
2018-09-28T16:43:25.683Z,147299.39
2018-09-28T16:45:57.826Z,147298.16
2018-09-28T16:48:27.744Z,147288.23
2018-09-28T16:50:59.943Z,147289.47
2018-09-28T16:53:31.092Z,147294.44
2018-09-28T16:56:01.092Z,147299.39
2018-09-28T16:58:30.930Z,147299.39
2018-09-28T17:01:01.017Z,147299.39
2018-09-28T17:03:31.283Z,147304.36
2018-09-28T17:06:02.315Z,147300.64
2018-09-28T17:08:33.725Z,147296.91
2018-09-28T17:11:03.945Z,147313.08
2018-09-28T17:13:35.261Z,147316.80
2018-09-28T17:16:07.726Z,147309.31
2018-09-28T17:18:37.546Z,147310.59
2018-09-28T17:21:08.210Z,147301.88
2018-09-28T17:23:38.924Z,147291.95
2018-09-28T17:26:08.961Z,147279.56
2018-09-28T17:28:40.015Z,147267.16
2018-09-28T17:31:10.159Z,147270.88
2018-09-28T17:33:40.305Z,147259.67
2018-09-28T17:36:10.307Z,147258.44
2018-09-28T17:38:41.068Z,147241.03
2018-09-28T17:41:12.237Z,147260.92
2018-09-28T17:43:46.011Z,147277.08
2018-09-28T17:46:22.298Z,147287.00
2018-09-28T17:48:52.735Z,147283.28
2018-09-28T17:51:22.595Z,147265.92
2018-09-28T17:53:52.507Z,147219.97
2018-09-28T17:56:23.791Z,147222.44
2018-09-28T17:58:54.087Z,147219.97
2018-09-28T18:01:24.643Z,147155.42
2018-09-28T18:03:55.981Z,147109.53
2018-09-28T18:06:28.505Z,147112.02
2018-09-28T18:08:59.181Z,147112.02
2018-09-28T18:11:33.465Z,147078.56
2018-09-28T18:14:03.594Z,147063.64
2018-09-28T18:16:33.994Z,147036.41
2018-09-28T18:19:04.154Z,147032.69
2018-09-28T18:21:34.798Z,147030.20
2018-09-28T18:24:05.119Z,147052.50
2018-09-28T18:26:35.638Z,147058.69
2018-09-28T18:29:06.440Z,147047.55
2018-09-28T18:31:37.219Z,147056.22
2018-09-28T18:34:08.340Z,147043.83
2018-09-28T18:36:38.716Z,147031.44
2018-09-28T18:39:10.499Z,147041.36
2018-09-28T18:41:41.501Z,147037.63
2018-09-28T18:44:11.811Z,147043.83
2018-09-28T18:46:44.891Z,147033.92
2018-09-28T18:49:16.508Z,147028.97
2018-09-28T18:51:47.282Z,147022.72
2018-09-28T18:54:17.723Z,147017.77
2018-09-28T18:56:48.466Z,147006.63
2018-09-28T18:59:18.803Z,146989.28
2018-09-28T19:01:49.226Z,146952.08
2018-09-28T19:04:20.604Z,146948.31
2018-09-28T19:06:51.661Z,146957.03
2018-09-28T19:09:22.160Z,146937.17
2018-09-28T19:11:53.524Z,146907.41
2018-09-28T19:14:23.813Z,146903.69
2018-09-28T19:16:54.161Z,146911.12
2018-09-28T19:19:25.488Z,146927.22
2018-09-28T19:21:57.487Z,146917.31
2018-09-28T19:24:27.904Z,146916.08
2018-09-28T19:26:58.331Z,146887.59
2018-09-28T19:29:28.480Z,146908.64
2018-09-28T19:31:58.829Z,146906.17
2018-09-28T19:34:30.503Z,146896.27
2018-09-28T19:37:00.705Z,146885.08
2018-09-28T19:39:32.326Z,146883.84
2018-09-28T19:42:02.655Z,146913.59
2018-09-28T19:44:32.908Z,146893.78
2018-09-28T19:47:03.142Z,146886.31
2018-09-28T19:49:34.305Z,146881.36
2018-09-28T19:52:04.519Z,146857.84
2018-09-28T19:54:34.644Z,146865.27
2018-09-28T19:57:05.164Z,146854.13
2018-09-28T19:59:35.383Z,146844.22
2018-09-28T20:02:07.249Z,146871.45
2018-09-28T20:04:37.759Z,146875.17
2018-09-28T20:07:08.757Z,146893.78
2018-09-28T20:09:39.020Z,146891.31
2018-09-28T20:12:09.554Z,146882.59
2018-09-28T20:14:39.860Z,146886.31
2018-09-28T20:17:11.108Z,146873.94
2018-09-28T20:19:41.582Z,146875.17
2018-09-28T20:22:13.629Z,146854.13
2018-09-28T20:24:43.903Z,146867.75
2018-09-28T20:27:15.650Z,146872.69
2018-09-28T20:29:46.646Z,146867.75
2018-09-28T20:32:17.122Z,146880.12
2018-09-28T20:34:47.580Z,146907.41
2018-09-28T20:37:17.799Z,146939.66
2018-09-28T20:39:48.303Z,146949.61
2018-09-28T20:42:20.021Z,146968.19
2018-09-28T20:44:49.796Z,146968.19
2018-09-28T20:47:19.535Z,146964.47
2018-09-28T20:49:49.320Z,146969.42
2018-09-28T20:52:19.312Z,146948.31
2018-09-28T20:54:50.001Z,146944.61
2018-09-28T20:57:20.224Z,146964.47
2018-09-28T20:59:50.510Z,146989.28
2018-09-28T21:02:20.677Z,146986.81
2018-09-28T21:04:51.917Z,146999.19
2018-09-28T21:07:23.295Z,147015.30
2018-09-28T21:09:53.877Z,147017.77
2018-09-28T21:12:24.233Z,147014.05
2018-09-28T21:14:54.520Z,146996.72
2018-09-28T21:17:24.789Z,146994.23
2018-09-28T21:19:55.114Z,146980.61
2018-09-28T21:22:25.334Z,146994.23
2018-09-28T21:24:55.574Z,146989.28
2018-09-28T21:27:26.446Z,146979.33
2018-09-28T21:29:56.252Z,147005.38
2018-09-28T21:32:25.965Z,147007.86
2018-09-28T21:34:56.281Z,147015.30
2018-09-28T21:37:26.378Z,146995.47
2018-09-28T21:39:56.529Z,146994.23
2018-09-28T21:42:26.961Z,147001.67
2018-09-28T21:44:56.966Z,147004.14
2018-09-28T21:47:27.238Z,147010.34
2018-09-28T21:49:56.974Z,147012.81
2018-09-28T21:52:26.621Z,147000.44
2018-09-28T21:54:56.509Z,147006.63
2018-09-28T21:57:26.460Z,147016.53
2018-09-28T21:59:56.158Z,147030.20
2018-09-28T22:02:26.342Z,147032.69
2018-09-28T22:04:58.367Z,147023.97
2018-09-28T22:07:28.971Z,147050.03
2018-09-28T22:09:59.308Z,147041.36
2018-09-28T22:12:29.554Z,147041.36
2018-09-28T22:14:59.687Z,147046.31
2018-09-28T22:17:30.043Z,147031.44
2018-09-28T22:20:01.073Z,147074.84
2018-09-28T22:22:31.087Z,147071.08
2018-09-28T22:25:02.031Z,147056.22
2018-09-28T22:27:32.017Z,147071.08
2018-09-28T22:30:02.210Z,147076.09
2018-09-28T22:32:32.318Z,147081.03
2018-09-28T22:35:02.727Z,147073.56
2018-09-28T22:37:32.781Z,147079.80
2018-09-28T22:40:02.941Z,147082.28
2018-09-28T22:42:34.129Z,147110.78
2018-09-28T22:45:04.450Z,147123.22
2018-09-28T22:47:34.527Z,147125.69
2018-09-28T22:50:05.024Z,147113.25
2018-09-28T22:52:35.290Z,147093.44
2018-09-28T22:55:05.505Z,147115.73
2018-09-28T22:57:36.818Z,147129.41
2018-09-28T23:00:07.137Z,147125.69
2018-09-28T23:02:37.483Z,147128.17
2018-09-28T23:05:08.417Z,147133.13
2018-09-28T23:07:38.679Z,147164.11
2018-09-28T23:10:09.505Z,147156.67
2018-09-28T23:12:39.686Z,147183.97
2018-09-28T23:15:11.184Z,147175.30
2018-09-28T23:31:23.617Z,147182.75
2018-09-28T23:33:53.822Z,147180.25
2018-09-28T23:36:24.036Z,147175.30
2018-09-28T23:38:53.968Z,147187.70
2018-09-28T23:41:24.451Z,147208.77
2018-09-28T23:43:55.418Z,147221.20
2018-09-28T23:46:26.356Z,147232.36
2018-09-28T23:48:56.604Z,147228.64
2018-09-28T23:51:26.809Z,147234.84
2018-09-28T23:54:00.970Z,147244.75
2018-09-28T23:56:32.023Z,147242.28
2018-09-28T23:59:02.475Z,147237.31
